Time;durP1;ratioP1;P1;durP2;ratioP2;P2;SDS_P1;SDS_P2;PMS_P1;PMS_P2;Temp;Humidity;BMP_temperature;BMP_pressure;BME280_temperature;BME280_humidity;BME280_pressure;Samples;Min_cycle;Max_cycle;Signal;HPM_P1;HPM_P2
2021/03/16 00:02:06;;;;;;;39.25;21.25;;;;;;;3.21;100.00;98283.65;1790122;80;20943;-69
2021/03/16 00:04:35;;;;;;;37.30;21.40;;;;;;;3.20;100.00;98276.61;1813486;79;21018;-69
2021/03/16 00:07:15;;;;;;;41.50;21.65;;;;;;;3.24;100.00;98276.82;1873620;76;22732;-67
2021/03/16 00:09:42;;;;;;;44.45;23.05;;;;;;;3.21;100.00;98284.20;1841733;77;21459;-67
2021/03/16 00:12:10;;;;;;;46.73;22.07;;;;;;;3.20;100.00;98278.52;1841727;78;21372;-67
2021/03/16 00:14:38;;;;;;;35.63;20.72;;;;;;;3.19;100.00;98276.91;1841592;78;21007;-67
2021/03/16 00:17:05;;;;;;;40.10;22.45;;;;;;;3.18;99.56;98273.95;1841653;78;21625;-67
2021/03/16 00:19:34;;;;;;;38.13;21.02;;;;;;;3.18;99.56;98273.95;1841618;77;20912;-67
2021/03/16 00:22:03;;;;;;;39.13;20.92;;;;;;;3.20;99.58;98270.39;1841766;77;20904;-67
2021/03/16 00:24:30;;;;;;;40.85;22.10;;;;;;;3.21;99.44;98267.38;1841686;78;22243;-67
2021/03/16 00:26:58;;;;;;;43.23;21.80;;;;;;;3.22;99.29;98268.18;1839491;76;21040;-67
2021/03/16 00:29:26;;;;;;;42.78;21.95;;;;;;;3.22;98.95;98266.83;1824419;78;21011;-68
2021/03/16 00:31:53;;;;;;;43.40;23.25;;;;;;;3.23;98.92;98262.45;1841570;78;20908;-67
2021/03/16 00:34:21;;;;;;;46.63;22.22;;;;;;;3.24;98.91;98257.84;1841603;78;20947;-67
2021/03/16 00:36:50;;;;;;;41.58;22.15;;;;;;;3.23;98.78;98257.03;1841497;78;20912;-68
2021/03/16 00:39:17;;;;;;;42.05;22.52;;;;;;;3.24;98.61;98253.22;1841406;78;21919;-67
2021/03/16 00:41:45;;;;;;;40.83;23.38;;;;;;;3.23;98.29;98258.39;1841569;78;20913;-67
2021/03/16 00:44:14;;;;;;;38.08;22.48;;;;;;;3.23;98.10;98257.03;1824855;78;21510;-68
2021/03/16 00:46:42;;;;;;;35.73;21.55;;;;;;;3.22;98.07;98258.13;1808626;79;21058;-66
2021/03/16 00:49:10;;;;;;;40.75;21.62;;;;;;;3.21;98.16;98260.59;1808432;79;21191;-66
2021/03/16 00:51:40;;;;;;;48.02;23.60;;;;;;;3.21;98.04;98257.08;1808427;78;21003;-66
2021/03/16 00:54:08;;;;;;;46.13;25.25;;;;;;;3.20;97.89;98253.56;1808621;79;21571;-66
2021/03/16 00:56:37;;;;;;;48.28;25.27;;;;;;;3.20;97.79;98256.83;1808491;79;21146;-67
2021/03/16 00:59:05;;;;;;;49.38;26.02;;;;;;;3.18;97.83;98255.77;1830073;78;21598;-66
2021/03/16 01:01:32;;;;;;;48.52;25.30;;;;;;;3.18;97.71;98257.13;1830426;78;21444;-66
2021/03/16 01:04:00;;;;;;;43.80;24.60;;;;;;;3.17;97.64;98254.16;1830323;78;20944;-66
2021/03/16 01:06:28;;;;;;;47.88;25.32;;;;;;;3.16;97.61;98259.88;1831868;78;21554;-66
2021/03/16 01:08:55;;;;;;;44.93;25.35;;;;;;;3.13;97.50;98259.92;1833259;78;21027;-67
2021/03/16 01:11:23;;;;;;;42.58;23.05;;;;;;;3.12;97.68;98258.87;1833365;78;21047;-66
2021/03/16 01:13:50;;;;;;;51.45;24.75;;;;;;;3.12;97.75;98258.87;1833362;78;22019;-66
2021/03/16 01:16:18;;;;;;;43.08;24.35;;;;;;;3.09;97.66;98258.91;1833239;78;20976;-66
2021/03/16 01:18:45;;;;;;;49.08;25.25;;;;;;;3.07;97.55;98258.41;1832644;78;20965;-67
2021/03/16 01:21:13;;;;;;;40.17;23.27;;;;;;;3.08;97.57;98259.20;1832799;78;20929;-67
2021/03/16 01:23:41;;;;;;;44.93;25.27;;;;;;;3.06;97.53;98252.73;1832765;78;20870;-66
2021/03/16 01:26:09;;;;;;;43.75;24.80;;;;;;;3.07;97.69;98254.34;1832799;78;22090;-66
2021/03/16 01:28:37;;;;;;;41.58;23.38;;;;;;;3.07;97.66;98251.62;1832786;78;21107;-66
2021/03/16 01:31:04;;;;;;;42.98;22.35;;;;;;;3.06;97.59;98251.38;1831035;78;21028;-67
2021/03/16 01:33:33;;;;;;;46.55;24.35;;;;;;;3.06;97.53;98250.56;1830399;78;21036;-67
2021/03/16 01:36:01;;;;;;;40.52;23.50;;;;;;;3.05;97.45;98251.12;1804902;78;20925;-67
2021/03/16 01:38:28;;;;;;;42.27;22.58;;;;;;;3.05;97.54;98241.63;1830367;78;21184;-67
2021/03/16 01:40:56;;;;;;;50.20;23.12;;;;;;;3.06;97.46;98248.66;1830258;78;21016;-67
2021/03/16 01:43:28;;;;;;;45.12;24.45;;;;;;;3.04;97.34;98246.80;1830361;78;21064;-67
2021/03/16 01:45:56;;;;;;;38.95;22.58;;;;;;;3.02;97.32;98246.29;1830368;78;21060;-67
2021/03/16 01:48:32;;;;;;;44.05;23.55;;;;;;;3.02;97.27;98244.94;1829025;78;20901;-67
2021/03/16 01:53:43;;;;;;;45.60;23.10;;;;;;;3.05;97.45;98232.14;1873728;76;22622;-66
2021/03/16 01:56:13;;;;;;;43.35;22.62;;;;;;;2.99;97.31;98230.06;1838978;77;20885;-66
2021/03/16 01:59:00;;;;;;;52.23;24.40;;;;;;;2.97;97.15;98232.83;1841648;78;21185;-66
2021/03/16 02:01:46;;;;;;;43.38;22.10;;;;;;;2.92;96.98;98230.20;1841608;78;20936;-66
2021/03/16 02:04:33;;;;;;;39.48;22.58;;;;;;;2.89;97.05;98237.57;1841597;78;20917;-68
2021/03/16 02:07:30;;;;;;;40.03;22.80;;;;;;;2.84;97.00;98236.33;1841635;78;21003;-67
2021/03/16 02:10:37;;;;;;;43.50;22.15;;;;;;;2.79;96.94;98241.28;1841658;78;20976;-67
2021/03/16 02:13:49;;;;;;;41.45;23.25;;;;;;;2.76;96.94;98242.42;1841634;77;21103;-68
2021/03/16 02:16:39;;;;;;;41.77;24.18;;;;;;;2.71;96.86;98241.96;1841693;77;21605;-68
2021/03/16 02:19:48;;;;;;;44.95;24.37;;;;;;;2.69;97.09;98242.00;1841635;78;20963;-66
2021/03/16 02:22:37;;;;;;;44.35;24.45;;;;;;;2.67;97.18;98243.65;1841626;78;21463;-66
2021/03/16 02:25:53;;;;;;;47.80;24.63;;;;;;;2.65;97.12;98238.52;1816519;78;20873;-66
2021/03/16 02:29:18;;;;;;;48.60;27.22;;;;;;;2.64;97.05;98239.63;1841558;77;21182;-66
2021/03/16 02:32:16;;;;;;;43.90;25.10;;;;;;;2.65;97.35;98241.23;1841538;78;21569;-67
2021/03/16 02:35:05;;;;;;;49.63;26.00;;;;;;;2.61;97.14;98236.16;1841556;78;20920;-67
2021/03/16 02:37:52;;;;;;;44.93;23.15;;;;;;;2.59;97.01;98239.70;1841506;77;20921;-67
2021/03/16 02:40:39;;;;;;;48.58;24.37;;;;;;;2.57;97.02;98237.84;1841578;77;20980;-66
2021/03/16 02:43:25;;;;;;;50.70;25.77;;;;;;;2.55;97.07;98232.46;1836502;78;21345;-67
2021/03/16 02:46:11;;;;;;;39.42;22.42;;;;;;;2.54;97.19;98233.56;1780619;79;20945;-67
2021/03/16 02:48:58;;;;;;;45.83;24.05;;;;;;;2.54;97.20;98228.95;1773172;79;20940;-67
2021/03/16 02:51:44;;;;;;;38.90;21.90;;;;;;;2.52;96.95;98233.05;1807983;79;20924;-67
2021/03/16 02:54:31;;;;;;;46.00;24.40;;;;;;;2.49;96.96;98224.97;1800610;79;20916;-67
2021/03/16 02:57:18;;;;;;;41.23;21.65;;;;;;;2.50;97.17;98222.52;1787853;79;22604;-66
2021/03/16 03:00:08;;;;;;;37.50;21.95;;;;;;;2.50;96.90;98229.28;1800650;79;21569;-67
2021/03/16 03:02:55;;;;;;;40.03;23.20;;;;;;;2.47;96.74;98224.45;1800602;78;20971;-67
2021/03/16 03:05:42;;;;;;;37.88;22.22;;;;;;;2.45;96.59;98224.50;1800068;79;21751;-67
2021/03/16 03:08:27;;;;;;;39.40;21.50;;;;;;;2.44;96.58;98225.05;1800088;79;21560;-67
2021/03/16 03:11:14;;;;;;;37.80;20.90;;;;;;;2.44;96.56;98224.23;1800030;78;21372;-67
2021/03/16 03:14:01;;;;;;;36.08;20.55;;;;;;;2.43;96.51;98226.14;1800015;79;20900;-67
2021/03/16 03:16:47;;;;;;;41.15;21.65;;;;;;;2.43;96.42;98225.34;1800053;79;20987;-67
2021/03/16 03:19:34;;;;;;;43.42;21.82;;;;;;;2.44;96.55;98232.36;1800056;79;20915;-67
2021/03/16 03:22:51;;;;;;;39.90;21.82;;;;;;;2.44;96.44;98230.46;1800126;78;20936;-67
2021/03/16 03:25:41;;;;;;;45.70;22.80;;;;;;;2.43;96.29;98223.98;1798151;79;21118;-67
2021/03/16 03:28:30;;;;;;;48.70;23.95;;;;;;;2.41;96.21;98222.92;1798308;79;21870;-67
2021/03/16 03:31:15;;;;;;;59.23;26.87;;;;;;;2.39;96.00;98233.25;1798422;79;21023;-67
2021/03/16 03:34:02;;;;;;;69.58;30.12;;;;;;;2.40;96.45;98233.50;1798337;79;20884;-67
2021/03/16 03:36:57;;;;;;;57.48;27.67;;;;;;;2.40;96.13;98235.41;1798384;79;21014;-67
2021/03/16 03:39:43;;;;;;;61.02;28.80;;;;;;;2.39;96.05;98234.59;1798703;79;22235;-68
2021/03/16 03:42:31;;;;;;;53.50;26.12;;;;;;;2.39;95.86;98240.02;1798322;79;20944;-68
2021/03/16 03:45:17;;;;;;;48.60;25.27;;;;;;;2.37;95.87;98238.15;1798414;79;21106;-68
2021/03/16 03:48:08;;;;;;;46.92;23.62;;;;;;;2.39;96.02;98239.21;1798324;79;21813;-68
2021/03/16 03:50:56;;;;;;;46.23;23.52;;;;;;;2.37;95.79;98231.38;1798394;79;20987;-69
2021/03/16 03:53:42;;;;;;;46.13;24.80;;;;;;;2.33;95.61;98230.36;1803741;79;21422;-65
2021/03/16 03:56:29;;;;;;;43.00;23.60;;;;;;;2.31;95.53;98230.66;1806262;79;20984;-66
2021/03/16 03:59:14;;;;;;;45.08;24.00;;;;;;;2.29;95.80;98229.36;1806306;79;20995;-65
2021/03/16 04:02:01;;;;;;;48.87;24.45;;;;;;;2.27;95.74;98222.08;1807412;79;20892;-65
2021/03/16 04:04:47;;;;;;;42.73;23.42;;;;;;;2.24;95.54;98222.67;1808078;79;20976;-66
2021/03/16 04:07:33;;;;;;;46.68;24.37;;;;;;;2.20;95.54;98213.52;1807931;78;21283;-66
2021/03/16 04:10:20;;;;;;;47.35;25.17;;;;;;;2.16;95.68;98210.59;1808029;79;21566;-66
2021/03/16 04:13:06;;;;;;;48.25;24.10;;;;;;;2.14;95.86;98209.28;1807938;78;21015;-66
2021/03/16 04:15:54;;;;;;;53.28;27.00;;;;;;;2.12;95.89;98219.59;1807897;79;21035;-67
2021/03/16 04:18:41;;;;;;;39.78;22.77;;;;;;;2.08;95.91;98220.73;1806950;79;21486;-66
2021/03/16 04:21:27;;;;;;;54.70;26.82;;;;;;;2.03;96.00;98222.16;1807949;79;21351;-67
2021/03/16 04:24:13;;;;;;;71.45;33.35;;;;;;;2.02;96.45;98235.43;1783384;79;21145;-67
2021/03/16 04:26:59;;;;;;;69.32;32.53;;;;;;;2.02;96.42;98233.27;1783630;79;21562;-67
2021/03/16 04:29:45;;;;;;;62.88;29.90;;;;;;;2.00;96.35;98225.44;1776096;80;21054;-67
2021/03/16 04:32:32;;;;;;;52.15;28.10;;;;;;;1.96;96.29;98226.57;1776084;80;21051;-68
2021/03/16 04:35:18;;;;;;;48.75;26.50;;;;;;;1.95;96.53;98235.79;1776113;80;21367;-67
2021/03/16 04:38:04;;;;;;;53.85;25.82;;;;;;;1.97;97.00;98240.36;1776086;80;20943;-67
2021/03/16 04:40:50;;;;;;;52.67;28.10;;;;;;;1.97;96.84;98236.85;1776076;80;21007;-68
2021/03/16 04:43:41;;;;;;;58.78;30.92;;;;;;;1.96;96.86;98234.69;1778182;79;21042;-68
2021/03/16 04:46:24;;;;;;;54.35;29.37;;;;;;;1.97;96.92;98236.30;1806327;79;21126;-68
2021/03/16 04:49:10;;;;;;;49.93;27.27;;;;;;;1.98;97.03;98246.03;1806528;79;21355;-68
2021/03/16 04:51:56;;;;;;;53.98;28.30;;;;;;;2.01;97.09;98247.91;1806120;79;21015;-68
2021/03/16 04:54:42;;;;;;;53.68;27.35;;;;;;;2.01;96.82;98246.00;1811620;79;21050;-68
2021/03/16 04:57:29;;;;;;;47.15;26.55;;;;;;;1.99;96.65;98251.70;1810782;77;21064;-68
2021/03/16 05:00:16;;;;;;;49.20;27.05;;;;;;;1.99;96.83;98258.47;1759679;81;20917;-68
2021/03/16 05:03:03;;;;;;;47.58;26.75;;;;;;;1.99;96.90;98254.95;1743859;82;21201;-68
2021/03/16 05:05:50;;;;;;;47.10;25.40;;;;;;;1.99;96.66;98253.06;1762921;81;20933;-69
2021/03/16 05:08:37;;;;;;;47.38;27.07;;;;;;;1.99;96.41;98255.77;1762190;80;21199;-69
2021/03/16 05:11:24;;;;;;;48.78;26.82;;;;;;;1.96;96.17;98251.48;1748007;80;21329;-67
2021/03/16 05:14:10;;;;;;;45.35;25.02;;;;;;;1.97;96.57;98257.95;1742844;81;21586;-67
2021/03/16 05:16:56;;;;;;;49.85;26.37;;;;;;;2.01;96.56;98260.08;1754568;81;21600;-67
2021/03/16 05:19:42;;;;;;;47.53;25.12;;;;;;;2.00;96.37;98251.16;1754607;81;21065;-67
2021/03/16 05:22:33;;;;;;;43.20;23.85;;;;;;;2.01;96.24;98247.36;1754791;81;20946;-68
2021/03/16 05:25:19;;;;;;;46.92;25.68;;;;;;;2.01;95.78;98257.38;1754726;81;21147;-67
2021/03/16 05:28:05;;;;;;;44.93;24.85;;;;;;;2.02;96.09;98254.38;1755578;81;21093;-67
2021/03/16 05:30:51;;;;;;;50.20;26.77;;;;;;;2.07;96.11;98252.16;1755163;81;21365;-67
2021/03/16 05:33:37;;;;;;;46.73;25.52;;;;;;;2.12;95.83;98263.72;1754187;81;21033;-67
2021/03/16 05:36:23;;;;;;;46.45;24.15;;;;;;;2.16;95.54;98262.59;1753857;80;20937;-67
2021/03/16 05:39:09;;;;;;;44.63;25.15;;;;;;;2.19;95.41;98257.39;1753976;81;20992;-68
2021/03/16 05:41:55;;;;;;;44.67;25.15;;;;;;;2.24;94.74;98259.22;1755299;81;21131;-68
2021/03/16 05:44:42;;;;;;;43.33;23.12;;;;;;;2.28;94.75;98256.19;1755250;80;21431;-68
2021/03/16 05:47:28;;;;;;;42.73;23.55;;;;;;;2.32;94.28;98254.47;1735897;81;21008;-67
2021/03/16 05:50:18;;;;;;;50.80;25.90;;;;;;;2.34;93.75;98253.63;1746939;81;20939;-68
2021/03/16 05:53:05;;;;;;;44.80;25.17;;;;;;;2.39;94.27;98250.05;1755739;81;21230;-68
2021/03/16 05:55:53;;;;;;;49.53;27.15;;;;;;;2.44;93.97;98254.03;1756717;81;21054;-68
2021/03/16 05:58:39;;;;;;;41.08;23.90;;;;;;;2.45;93.52;98259.16;1683086;82;21221;-68
2021/03/16 06:01:26;;;;;;;43.75;23.27;;;;;;;2.52;93.85;98262.30;1758588;80;20962;-70
2021/03/16 06:04:12;;;;;;;39.70;22.13;;;;;;;2.57;93.04;98270.35;1747951;82;21028;-72
2021/03/16 06:06:58;;;;;;;46.10;23.02;;;;;;;2.58;92.55;98265.19;1758356;81;20985;-68
2021/03/16 06:09:46;;;;;;;49.88;25.20;;;;;;;2.59;92.77;98276.83;1723537;82;21166;-67
2021/03/16 06:12:34;;;;;;;47.08;22.85;;;;;;;2.62;92.50;98272.18;1758438;81;20950;-67
2021/03/16 06:15:22;;;;;;;41.23;21.55;;;;;;;2.61;91.56;98275.44;1747883;82;21146;-68
2021/03/16 06:18:12;;;;;;;48.78;22.20;;;;;;;2.62;91.29;98273.53;1758623;81;20990;-78
2021/03/16 06:21:01;;;;;;;39.38;22.87;;;;;;;2.63;91.59;98272.44;1747012;82;21164;-71
2021/03/16 06:23:58;;;;;;;42.08;22.75;;;;;;;2.67;91.66;98261.27;1741270;81;21175;-79
2021/03/16 06:26:48;;;;;;;41.33;22.32;;;;;;;2.71;91.49;98262.83;1745809;81;21419;-75
2021/03/16 06:29:43;;;;;;;49.80;25.27;;;;;;;2.77;91.48;98260.30;1718162;83;21500;-73
2021/03/16 06:32:35;;;;;;;49.38;24.82;;;;;;;2.79;90.65;98264.33;1712523;83;21481;-76
2021/03/16 06:35:23;;;;;;;48.35;25.50;;;;;;;2.80;90.68;98263.77;1712316;83;20953;-74
2021/03/16 06:38:10;;;;;;;43.05;23.67;;;;;;;2.86;90.82;98269.36;1725554;83;21130;-78
2021/03/16 06:41:16;;;;;;;43.50;23.30;;;;;;;2.94;90.43;98275.44;1725896;83;21614;-73
2021/03/16 06:44:04;;;;;;;43.38;23.00;;;;;;;3.02;90.24;98270.69;1725903;81;21075;-72
2021/03/16 06:46:58;;;;;;;44.38;21.23;;;;;;;3.12;89.92;98275.94;1725989;83;21150;-73
2021/03/16 06:49:44;;;;;;;38.33;21.20;;;;;;;3.20;89.53;98272.55;1726067;83;21076;-75
2021/03/16 06:52:32;;;;;;;37.80;20.88;;;;;;;3.24;88.55;98273.56;1726156;83;21083;-74
2021/03/16 06:55:19;;;;;;;39.05;20.92;;;;;;;3.25;88.06;98277.88;1729483;83;21276;-75
2021/03/16 06:58:07;;;;;;;41.48;21.97;;;;;;;3.26;87.32;98275.42;1729563;83;20952;-73
2021/03/16 07:01:09;;;;;;;34.27;20.25;;;;;;;3.26;87.72;98278.14;1729658;81;21071;-72
2021/03/16 07:03:57;;;;;;;45.35;22.67;;;;;;;3.24;87.46;98270.05;1729175;81;21206;-75
2021/03/16 07:06:44;;;;;;;36.90;20.12;;;;;;;3.20;87.48;98279.33;1750875;81;21119;-77
2021/03/16 07:09:32;;;;;;;42.75;22.62;;;;;;;3.20;88.04;98278.52;1758538;80;21999;-76
2021/03/16 07:12:20;;;;;;;34.55;20.65;;;;;;;3.24;88.20;98282.25;1759415;81;21000;-77
2021/03/16 07:15:07;;;;;;;38.85;19.80;;;;;;;3.28;88.21;98279.19;1757899;80;21207;-77
2021/03/16 07:17:53;;;;;;;37.55;21.82;;;;;;;3.36;88.45;98281.77;1756269;81;21141;-84
2021/03/16 07:20:39;;;;;;;41.95;20.35;;;;;;;3.45;88.55;98282.69;1733469;81;21116;-81
2021/03/16 07:23:26;;;;;;;42.45;21.95;;;;;;;3.51;87.37;98277.39;1765300;81;21338;-73
2021/03/16 07:26:12;;;;;;;41.77;22.45;;;;;;;3.56;87.84;98274.58;1765602;80;20934;-73
2021/03/16 07:28:58;;;;;;;55.70;25.15;;;;;;;3.65;87.41;98275.49;1765629;81;21580;-74
2021/03/16 07:31:43;;;;;;;52.60;25.15;;;;;;;3.72;87.10;98267.75;1767278;81;21151;-76
2021/03/16 07:34:31;;;;;;;43.85;21.42;;;;;;;3.84;87.00;98274.84;1767401;80;21159;-77
2021/03/16 07:37:17;;;;;;;34.53;20.15;;;;;;;3.93;85.43;98276.30;1767777;81;22114;-82
2021/03/16 07:40:08;;;;;;;44.88;21.77;;;;;;;4.02;85.88;98273.67;1767569;80;21081;-74
2021/03/16 07:42:55;;;;;;;42.43;20.68;;;;;;;4.20;86.40;98266.73;1737081;82;20960;-81
2021/03/16 07:45:41;;;;;;;37.35;19.17;;;;;;;4.43;85.93;98260.79;1737227;82;21087;-80
2021/03/16 07:48:29;;;;;;;35.92;20.77;;;;;;;4.85;83.14;98258.70;1737283;81;21168;-82
2021/03/16 07:51:17;;;;;;;34.92;20.12;;;;;;;4.85;83.14;98258.70;1737229;82;21051;-79
2021/03/16 07:54:05;;;;;;;40.55;19.60;;;;;;;5.08;83.34;98249.97;1756960;81;21480;-75
2021/03/16 07:57:01;;;;;;;41.42;22.42;;;;;;;5.41;83.89;98255.89;1735634;81;20997;-78
2021/03/16 07:59:57;;;;;;;35.80;19.15;;;;;;;5.68;82.65;98252.16;1723086;83;21076;-77
2021/03/16 08:02:44;;;;;;;32.88;19.12;;;;;;;5.89;81.18;98254.00;1738131;81;21072;-77
2021/03/16 08:05:45;;;;;;;33.25;19.15;;;;;;;6.10;79.55;98235.70;1759109;80;22109;-73
2021/03/16 08:08:39;;;;;;;35.30;17.90;;;;;;;6.32;77.85;98247.03;1753153;81;21175;-73
2021/03/16 08:11:40;;;;;;;34.78;18.32;;;;;;;6.53;76.51;98243.34;1723039;81;20958;-72
2021/03/16 08:14:30;;;;;;;33.25;18.45;;;;;;;6.79;75.10;98246.63;1723022;83;21057;-70
2021/03/16 08:17:31;;;;;;;43.20;19.95;;;;;;;7.14;75.75;98250.88;1723176;82;21171;-69
2021/03/16 08:20:27;;;;;;;33.13;18.60;;;;;;;7.60;73.98;98246.55;1728789;83;22323;-70
2021/03/16 08:23:13;;;;;;;31.17;18.73;;;;;;;8.00;70.51;98236.64;1728707;81;20962;-70
2021/03/16 08:26:01;;;;;;;33.45;18.42;;;;;;;8.15;70.27;98243.67;1728939;82;21584;-70
2021/03/16 08:28:48;;;;;;;31.37;18.57;;;;;;;8.32;69.36;98246.86;1728789;82;21124;-73
2021/03/16 08:31:37;;;;;;;37.08;19.45;;;;;;;8.27;67.08;98248.42;1728720;83;21155;-75
2021/03/16 08:34:25;;;;;;;35.10;18.55;;;;;;;8.08;66.88;98249.45;1748820;80;21196;-72
2021/03/16 08:37:25;;;;;;;30.75;16.73;;;;;;;7.94;67.15;98245.02;1728669;82;20976;-72
2021/03/16 08:40:17;;;;;;;90.05;38.85;;;;;;;7.91;68.56;98247.05;1734926;82;21545;-69
2021/03/16 08:43:10;;;;;;;53.90;28.90;;;;;;;8.15;71.91;98237.41;1750756;82;20961;-73
2021/03/16 08:45:57;;;;;;;64.67;32.15;;;;;;;8.52;69.99;98234.36;1748088;82;21871;-69
2021/03/16 08:48:45;;;;;;;48.23;26.97;;;;;;;8.84;68.86;98245.09;1741119;81;21367;-69
2021/03/16 08:51:33;;;;;;;149.30;72.58;;;;;;;9.03;68.01;98245.41;1758603;81;21512;-68
2021/03/16 08:54:28;;;;;;;45.03;23.05;;;;;;;9.13;65.88;98244.98;1729396;80;21582;-69
2021/03/16 08:57:21;;;;;;;71.55;41.13;;;;;;;9.10;66.95;98244.86;1756781;81;21057;-69
2021/03/16 09:00:09;;;;;;;49.03;30.15;;;;;;;9.21;66.11;98241.92;1748184;80;21123;-71
2021/03/16 09:02:55;;;;;;;33.00;18.30;;;;;;;9.25;65.85;98243.62;1758989;81;21361;-74
2021/03/16 09:05:41;;;;;;;33.40;17.40;;;;;;;9.44;68.39;98247.20;1748172;82;21100;-72
2021/03/16 09:08:28;;;;;;;29.32;16.75;;;;;;;9.85;63.72;98244.84;1759582;80;21124;-70
2021/03/16 09:11:13;;;;;;;28.35;17.23;;;;;;;9.93;64.25;98243.13;1749536;80;21020;-69
2021/03/16 09:14:17;;;;;;;31.37;16.20;;;;;;;10.13;65.73;98250.43;1723987;82;21579;-69
2021/03/16 09:17:03;;;;;;;32.00;17.85;;;;;;;10.22;61.87;98243.48;1748071;80;21202;-69
2021/03/16 09:19:49;;;;;;;35.90;18.20;;;;;;;10.13;65.37;98239.46;1723849;82;21671;-68
2021/03/16 09:22:35;;;;;;;30.95;16.32;;;;;;;10.06;64.92;98241.17;1749353;81;21171;-68
2021/03/16 09:25:30;;;;;;;28.05;16.48;;;;;;;10.12;65.36;98248.03;1749839;82;20964;-69
2021/03/16 09:28:17;;;;;;;30.40;18.05;;;;;;;10.11;63.75;98245.06;1750242;82;21161;-68
2021/03/16 09:31:03;;;;;;;33.60;18.05;;;;;;;10.01;64.85;98246.89;1725446;82;21165;-68
2021/03/16 09:33:49;;;;;;;35.13;18.02;;;;;;;9.81;65.35;98259.02;1750044;82;21147;-69
2021/03/16 09:36:35;;;;;;;29.95;17.67;;;;;;;9.50;64.88;98263.66;1750630;81;21096;-69
2021/03/16 09:39:23;;;;;;;32.98;19.12;;;;;;;9.35;66.39;98259.39;1750617;82;20993;-69
2021/03/16 09:41:56;;;;;;;31.60;18.55;;;;;;;9.32;65.90;98258.70;1750423;82;21099;-69
2021/03/16 09:44:40;;;;;;;33.20;18.82;;;;;;;9.22;65.67;98265.44;1750569;80;21194;-69
2021/03/16 09:47:09;;;;;;;34.95;17.95;;;;;;;9.14;67.89;98260.84;1750302;82;21600;-70
2021/03/16 09:49:40;;;;;;;31.35;18.37;;;;;;;9.19;68.48;98267.48;1750284;82;20989;-68
2021/03/16 09:52:10;;;;;;;40.38;18.20;;;;;;;9.33;66.97;98262.47;1749348;82;21017;-68
2021/03/16 09:54:44;;;;;;;35.85;18.30;;;;;;;9.33;66.67;98251.52;1748982;80;21536;-69
2021/03/16 09:57:15;;;;;;;32.53;17.48;;;;;;;9.39;68.67;98257.01;1749347;82;21369;-68
2021/03/16 09:59:45;;;;;;;37.43;19.63;;;;;;;9.51;68.20;98253.50;1750870;82;21139;-69
2021/03/16 10:02:13;;;;;;;48.40;25.62;;;;;;;9.53;67.88;98251.22;1750697;82;20949;-68
2021/03/16 10:04:49;;;;;;;34.10;17.45;;;;;;;9.47;68.25;98249.84;1749993;82;21072;-70
2021/03/16 10:07:31;;;;;;;27.60;16.48;;;;;;;9.47;69.09;98245.16;1749111;82;21167;-70
2021/03/16 10:10:12;;;;;;;31.85;16.75;;;;;;;9.55;68.83;98229.77;1749306;80;21194;-71
2021/03/16 10:12:52;;;;;;;37.08;18.17;;;;;;;9.52;67.30;98234.55;1750454;82;21162;-84
2021/03/16 10:15:35;;;;;;;27.75;16.77;;;;;;;9.40;68.09;98227.68;1724607;82;21107;-68
2021/03/16 10:18:07;;;;;;;33.08;18.55;;;;;;;9.38;68.09;98234.06;1750742;82;20945;-66
2021/03/16 10:20:37;;;;;;;36.20;18.25;;;;;;;9.41;68.78;98227.34;1751081;82;20949;-67
2021/03/16 10:23:14;;;;;;;34.50;16.10;;;;;;;9.53;68.83;98234.21;1750810;82;21482;-66
2021/03/16 10:25:55;;;;;;;35.52;18.55;;;;;;;9.60;68.40;98236.39;1750332;81;21115;-66
2021/03/16 10:28:40;;;;;;;36.38;18.27;;;;;;;9.60;68.05;98239.94;1750777;82;21044;-67
2021/03/16 10:31:16;;;;;;;31.95;18.23;;;;;;;9.39;67.15;98241.95;1750723;81;21512;-68
2021/03/16 10:33:45;;;;;;;28.60;17.35;;;;;;;9.19;67.16;98240.89;1750769;82;21067;-68
2021/03/16 10:36:17;;;;;;;33.40;16.85;;;;;;;9.10;68.19;98249.77;1750829;80;20948;-69
2021/03/16 10:38:48;;;;;;;25.92;15.85;;;;;;;9.05;68.55;98247.80;1747776;82;20970;-72
2021/03/16 10:41:17;;;;;;;28.73;15.80;;;;;;;9.12;68.09;98250.80;1742995;82;21103;-70
2021/03/16 10:43:45;;;;;;;28.17;16.67;;;;;;;9.13;67.66;98240.87;1741792;80;21080;-67
2021/03/16 10:46:12;;;;;;;27.95;15.90;;;;;;;9.16;69.42;98249.78;1736892;82;21122;-67
2021/03/16 10:48:41;;;;;;;33.75;18.17;;;;;;;9.35;69.73;98243.77;1744196;82;22287;-67
2021/03/16 10:51:09;;;;;;;31.25;17.77;;;;;;;9.48;66.67;98241.85;1742977;82;21034;-67
2021/03/16 10:53:37;;;;;;;32.88;17.35;;;;;;;9.41;67.02;98244.34;1744899;80;21044;-67
2021/03/16 10:56:06;;;;;;;25.72;14.85;;;;;;;9.36;67.99;98244.56;1750578;81;21099;-67
2021/03/16 10:58:33;;;;;;;27.80;14.93;;;;;;;9.45;69.59;98236.48;1750766;82;21051;-68
2021/03/16 11:01:02;;;;;;;28.55;16.87;;;;;;;9.59;68.97;98240.27;1750718;81;21212;-67
2021/03/16 11:03:33;;;;;;;44.35;19.32;;;;;;;9.74;68.16;98233.33;1750688;82;21083;-67
2021/03/16 11:06:02;;;;;;;38.20;17.73;;;;;;;9.79;67.65;98238.01;1750728;81;20941;-67
2021/03/16 11:08:33;;;;;;;28.55;16.07;;;;;;;9.86;69.12;98236.84;1750700;81;20961;-67
2021/03/16 11:11:02;;;;;;;79.75;24.18;;;;;;;9.98;67.50;98232.50;1750762;82;21060;-67
2021/03/16 11:13:29;;;;;;;46.68;21.68;;;;;;;10.11;65.99;98233.52;1750693;80;21396;-67
2021/03/16 11:15:59;;;;;;;81.20;23.38;;;;;;;10.22;65.60;98231.14;1750658;81;20993;-67
2021/03/16 11:18:27;;;;;;;200.38;46.00;;;;;;;10.36;65.54;98231.58;1750703;81;21060;-68
2021/03/16 11:20:55;;;;;;;29.90;15.53;;;;;;;10.45;65.64;98225.36;1750687;80;21124;-67
2021/03/16 11:23:22;;;;;;;80.57;22.02;;;;;;;10.49;64.20;98227.64;1750719;82;20917;-68
2021/03/16 11:25:51;;;;;;;40.92;18.12;;;;;;;10.43;63.76;98223.53;1750681;82;22220;-68
2021/03/16 11:28:19;;;;;;;45.52;18.98;;;;;;;10.43;64.32;98219.99;1750660;82;20953;-68
2021/03/16 11:30:47;;;;;;;37.73;18.15;;;;;;;10.43;64.83;98223.53;1750669;82;21028;-68
2021/03/16 11:33:15;;;;;;;34.70;16.73;;;;;;;10.48;63.90;98226.04;1750608;81;21056;-68
2021/03/16 11:36:01;;;;;;;28.57;16.67;;;;;;;10.49;65.41;98224.89;1750760;82;21511;-68
2021/03/16 11:38:48;;;;;;;33.02;16.80;;;;;;;10.39;62.56;98218.55;1750749;81;21208;-68
2021/03/16 11:41:35;;;;;;;26.40;16.97;;;;;;;10.23;64.05;98227.26;1750612;80;20949;-68
2021/03/16 11:44:21;;;;;;;28.05;16.93;;;;;;;10.17;63.32;98227.23;1750677;81;21501;-67
2021/03/16 11:47:08;;;;;;;34.95;17.50;;;;;;;10.00;63.17;98225.53;1750730;81;21926;-66
2021/03/16 11:49:55;;;;;;;32.58;18.45;;;;;;;9.83;63.85;98221.08;1750710;82;21080;-66
2021/03/16 11:52:41;;;;;;;36.93;18.10;;;;;;;9.76;65.20;98220.88;1750718;80;21391;-67
2021/03/16 11:55:28;;;;;;;39.80;17.77;;;;;;;9.74;66.06;98220.42;1750459;81;21088;-67
2021/03/16 11:58:15;;;;;;;34.58;16.55;;;;;;;9.68;66.56;98220.41;1750631;80;21063;-67
2021/03/16 12:01:01;;;;;;;52.23;18.57;;;;;;;9.79;67.56;98216.08;1750685;82;21060;-68
2021/03/16 12:03:47;;;;;;;68.28;21.77;;;;;;;10.00;67.06;98217.87;1750705;82;21004;-68
2021/03/16 12:06:34;;;;;;;29.87;16.70;;;;;;;10.12;66.19;98215.13;1750700;82;21379;-68
2021/03/16 12:09:20;;;;;;;60.23;20.65;;;;;;;10.11;65.39;98216.27;1750632;82;21103;-68
2021/03/16 12:12:08;;;;;;;43.87;21.17;;;;;;;10.14;66.21;98215.01;1750675;82;21051;-68
2021/03/16 12:14:54;;;;;;;119.70;47.93;;;;;;;10.25;65.56;98211.25;1750598;82;20925;-68
2021/03/16 12:17:40;;;;;;;32.45;16.93;;;;;;;10.32;64.87;98219.70;1750706;80;20999;-67
2021/03/16 12:20:27;;;;;;;32.03;17.50;;;;;;;10.39;63.61;98225.41;1750697;82;21202;-67
2021/03/16 12:23:16;;;;;;;46.85;19.23;;;;;;;10.42;63.59;98213.70;1750582;80;20949;-67
2021/03/16 12:26:04;;;;;;;49.50;19.85;;;;;;;10.25;63.01;98214.80;1750709;81;20925;-68
2021/03/16 12:28:50;;;;;;;39.40;18.57;;;;;;;10.20;64.36;98216.41;1750639;82;21024;-66
2021/03/16 12:31:38;;;;;;;37.00;18.12;;;;;;;10.27;65.79;98217.20;1750646;82;21147;-67
2021/03/16 12:34:25;;;;;;;36.08;18.35;;;;;;;10.45;65.10;98218.50;1750705;82;21382;-66
2021/03/16 12:37:12;;;;;;;29.52;15.53;;;;;;;10.56;63.93;98207.27;1750579;82;20953;-67
2021/03/16 12:39:58;;;;;;;34.58;16.80;;;;;;;10.71;63.23;98217.28;1750633;80;21013;-67